sensor_id;sensor_type;location;lat;lon;timestamp;P1;durP1;ratioP1;P2;durP2;ratioP2
71125;SDS011;58785;55.566;38.058;2023-01-20T00:01:20;28.33;;;8.93;;
71125;SDS011;58785;55.566;38.058;2023-01-20T00:03:46;25.00;;;9.23;;
71125;SDS011;58785;55.566;38.058;2023-01-20T00:06:12;19.88;;;8.02;;
71125;SDS011;58785;55.566;38.058;2023-01-20T00:08:38;23.03;;;8.73;;
71125;SDS011;58785;55.566;38.058;2023-01-20T00:11:05;23.65;;;8.20;;
71125;SDS011;58785;55.566;38.058;2023-01-20T00:13:33;25.42;;;9.30;;
71125;SDS011;58785;55.566;38.058;2023-01-20T00:16:03;20.25;;;6.63;;
71125;SDS011;58785;55.566;38.058;2023-01-20T00:18:30;25.90;;;8.63;;
71125;SDS011;58785;55.566;38.058;2023-01-20T00:21:00;23.67;;;7.93;;
71125;SDS011;58785;55.566;38.058;2023-01-20T00:23:26;20.83;;;8.10;;
71125;SDS011;58785;55.566;38.058;2023-01-20T00:25:52;24.87;;;9.20;;
71125;SDS011;58785;55.566;38.058;2023-01-20T00:28:17;22.50;;;7.55;;
71125;SDS011;58785;55.566;38.058;2023-01-20T00:30:43;22.10;;;8.17;;
71125;SDS011;58785;55.566;38.058;2023-01-20T00:33:08;25.17;;;8.50;;
71125;SDS011;58785;55.566;38.058;2023-01-20T00:35:35;26.55;;;9.10;;
71125;SDS011;58785;55.566;38.058;2023-01-20T00:38:01;27.58;;;8.57;;
71125;SDS011;58785;55.566;38.058;2023-01-20T00:40:27;26.87;;;8.90;;
71125;SDS011;58785;55.566;38.058;2023-01-20T00:42:53;23.40;;;8.23;;
71125;SDS011;58785;55.566;38.058;2023-01-20T00:45:18;27.60;;;8.80;;
71125;SDS011;58785;55.566;38.058;2023-01-20T00:47:44;21.17;;;8.07;;
71125;SDS011;58785;55.566;38.058;2023-01-20T00:50:10;25.00;;;8.88;;
71125;SDS011;58785;55.566;38.058;2023-01-20T00:52:35;25.07;;;9.10;;
71125;SDS011;58785;55.566;38.058;2023-01-20T00:55:01;22.83;;;8.75;;
71125;SDS011;58785;55.566;38.058;2023-01-20T00:57:29;23.27;;;9.32;;
71125;SDS011;58785;55.566;38.058;2023-01-20T00:59:54;26.63;;;9.93;;
71125;SDS011;58785;55.566;38.058;2023-01-20T01:02:20;26.40;;;8.50;;
71125;SDS011;58785;55.566;38.058;2023-01-20T01:04:48;24.92;;;8.52;;
71125;SDS011;58785;55.566;38.058;2023-01-20T01:07:15;23.23;;;8.55;;
71125;SDS011;58785;55.566;38.058;2023-01-20T01:09:41;27.00;;;9.00;;
71125;SDS011;58785;55.566;38.058;2023-01-20T01:12:06;26.48;;;9.35;;
71125;SDS011;58785;55.566;38.058;2023-01-20T01:14:32;25.40;;;8.90;;
71125;SDS011;58785;55.566;38.058;2023-01-20T01:16:57;26.05;;;9.85;;
71125;SDS011;58785;55.566;38.058;2023-01-20T01:19:23;24.60;;;8.67;;
71125;SDS011;58785;55.566;38.058;2023-01-20T01:21:49;24.83;;;7.80;;
71125;SDS011;58785;55.566;38.058;2023-01-20T01:24:14;21.83;;;7.83;;
71125;SDS011;58785;55.566;38.058;2023-01-20T01:26:40;26.60;;;8.77;;
71125;SDS011;58785;55.566;38.058;2023-01-20T01:29:06;23.27;;;9.23;;
71125;SDS011;58785;55.566;38.058;2023-01-20T01:31:31;21.37;;;8.60;;
71125;SDS011;58785;55.566;38.058;2023-01-20T01:33:57;24.75;;;8.77;;
71125;SDS011;58785;55.566;38.058;2023-01-20T01:36:23;21.63;;;8.23;;
71125;SDS011;58785;55.566;38.058;2023-01-20T01:38:48;22.42;;;8.80;;
71125;SDS011;58785;55.566;38.058;2023-01-20T01:41:14;26.63;;;9.17;;
71125;SDS011;58785;55.566;38.058;2023-01-20T01:44:01;25.40;;;8.88;;
71125;SDS011;58785;55.566;38.058;2023-01-20T01:46:35;26.15;;;9.32;;
71125;SDS011;58785;55.566;38.058;2023-01-20T01:49:02;24.33;;;8.90;;
71125;SDS011;58785;55.566;38.058;2023-01-20T01:51:39;26.55;;;9.10;;
71125;SDS011;58785;55.566;38.058;2023-01-20T01:54:11;25.43;;;8.97;;
71125;SDS011;58785;55.566;38.058;2023-01-20T01:56:40;29.00;;;9.23;;
71125;SDS011;58785;55.566;38.058;2023-01-20T01:59:07;23.88;;;8.70;;
71125;SDS011;58785;55.566;38.058;2023-01-20T02:01:34;22.33;;;6.43;;
71125;SDS011;58785;55.566;38.058;2023-01-20T02:04:04;26.80;;;9.55;;
71125;SDS011;58785;55.566;38.058;2023-01-20T02:06:35;23.77;;;8.53;;
71125;SDS011;58785;55.566;38.058;2023-01-20T02:09:04;23.10;;;7.90;;
71125;SDS011;58785;55.566;38.058;2023-01-20T02:11:30;21.23;;;8.30;;
71125;SDS011;58785;55.566;38.058;2023-01-20T02:14:01;22.17;;;8.02;;
71125;SDS011;58785;55.566;38.058;2023-01-20T02:31:13;23.95;;;8.77;;
71125;SDS011;58785;55.566;38.058;2023-01-20T02:33:38;25.38;;;8.38;;
71125;SDS011;58785;55.566;38.058;2023-01-20T02:39:27;23.38;;;7.35;;
71125;SDS011;58785;55.566;38.058;2023-01-20T02:42:08;19.70;;;7.57;;
71125;SDS011;58785;55.566;38.058;2023-01-20T02:44:42;21.05;;;7.47;;
71125;SDS011;58785;55.566;38.058;2023-01-20T02:47:32;21.92;;;8.45;;
71125;SDS011;58785;55.566;38.058;2023-01-20T02:50:08;24.50;;;8.32;;
71125;SDS011;58785;55.566;38.058;2023-01-20T02:52:44;21.90;;;7.88;;
71125;SDS011;58785;55.566;38.058;2023-01-20T02:55:14;24.97;;;7.83;;
71125;SDS011;58785;55.566;38.058;2023-01-20T02:57:59;21.70;;;7.68;;
71125;SDS011;58785;55.566;38.058;2023-01-20T03:00:31;23.95;;;8.57;;
71125;SDS011;58785;55.566;38.058;2023-01-20T03:03:01;24.50;;;8.05;;
71125;SDS011;58785;55.566;38.058;2023-01-20T03:05:34;24.60;;;9.02;;
71125;SDS011;58785;55.566;38.058;2023-01-20T03:08:04;20.47;;;7.47;;
71125;SDS011;58785;55.566;38.058;2023-01-20T03:10:33;24.15;;;8.10;;
71125;SDS011;58785;55.566;38.058;2023-01-20T03:15:41;25.63;;;8.48;;
71125;SDS011;58785;55.566;38.058;2023-01-20T03:18:13;25.27;;;8.77;;
71125;SDS011;58785;55.566;38.058;2023-01-20T03:20:39;23.63;;;8.00;;
71125;SDS011;58785;55.566;38.058;2023-01-20T03:23:04;23.80;;;7.87;;
71125;SDS011;58785;55.566;38.058;2023-01-20T03:25:30;25.83;;;7.97;;
71125;SDS011;58785;55.566;38.058;2023-01-20T03:27:56;24.05;;;8.05;;
71125;SDS011;58785;55.566;38.058;2023-01-20T03:30:22;25.23;;;8.33;;
71125;SDS011;58785;55.566;38.058;2023-01-20T03:32:49;24.08;;;7.25;;
71125;SDS011;58785;55.566;38.058;2023-01-20T03:35:16;18.15;;;6.93;;
71125;SDS011;58785;55.566;38.058;2023-01-20T03:37:42;20.90;;;7.10;;
71125;SDS011;58785;55.566;38.058;2023-01-20T03:40:08;25.42;;;8.38;;
71125;SDS011;58785;55.566;38.058;2023-01-20T03:42:51;26.45;;;7.90;;
71125;SDS011;58785;55.566;38.058;2023-01-20T03:45:36;22.50;;;8.00;;
71125;SDS011;58785;55.566;38.058;2023-01-20T03:48:23;20.65;;;7.35;;
71125;SDS011;58785;55.566;38.058;2023-01-20T03:51:07;24.60;;;7.30;;
71125;SDS011;58785;55.566;38.058;2023-01-20T03:53:51;22.20;;;7.68;;
71125;SDS011;58785;55.566;38.058;2023-01-20T03:56:24;21.88;;;7.90;;
71125;SDS011;58785;55.566;38.058;2023-01-20T03:59:06;25.13;;;7.07;;
71125;SDS011;58785;55.566;38.058;2023-01-20T04:01:36;23.60;;;7.18;;
71125;SDS011;58785;55.566;38.058;2023-01-20T04:04:07;23.73;;;7.80;;
71125;SDS011;58785;55.566;38.058;2023-01-20T04:06:43;21.40;;;7.70;;
71125;SDS011;58785;55.566;38.058;2023-01-20T04:09:16;22.52;;;8.25;;
71125;SDS011;58785;55.566;38.058;2023-01-20T04:11:47;19.45;;;6.45;;
71125;SDS011;58785;55.566;38.058;2023-01-20T04:14:13;20.48;;;7.18;;
71125;SDS011;58785;55.566;38.058;2023-01-20T04:16:39;18.87;;;6.10;;
71125;SDS011;58785;55.566;38.058;2023-01-20T04:19:05;19.63;;;7.47;;
71125;SDS011;58785;55.566;38.058;2023-01-20T04:21:34;25.27;;;7.90;;
71125;SDS011;58785;55.566;38.058;2023-01-20T04:26:53;20.88;;;6.00;;
71125;SDS011;58785;55.566;38.058;2023-01-20T04:29:19;23.60;;;8.03;;
71125;SDS011;58785;55.566;38.058;2023-01-20T04:31:45;18.15;;;6.68;;
71125;SDS011;58785;55.566;38.058;2023-01-20T04:34:13;29.40;;;9.40;;
71125;SDS011;58785;55.566;38.058;2023-01-20T04:36:41;21.75;;;6.72;;
71125;SDS011;58785;55.566;38.058;2023-01-20T04:39:07;21.15;;;7.30;;
71125;SDS011;58785;55.566;38.058;2023-01-20T04:41:33;22.70;;;9.00;;
71125;SDS011;58785;55.566;38.058;2023-01-20T04:43:58;21.15;;;8.10;;
71125;SDS011;58785;55.566;38.058;2023-01-20T04:46:24;22.53;;;8.20;;
71125;SDS011;58785;55.566;38.058;2023-01-20T04:48:50;22.35;;;7.05;;
71125;SDS011;58785;55.566;38.058;2023-01-20T04:51:16;22.67;;;7.87;;
71125;SDS011;58785;55.566;38.058;2023-01-20T04:53:42;22.73;;;8.50;;
71125;SDS011;58785;55.566;38.058;2023-01-20T04:56:11;24.37;;;8.30;;
71125;SDS011;58785;55.566;38.058;2023-01-20T04:58:37;23.60;;;8.10;;
71125;SDS011;58785;55.566;38.058;2023-01-20T05:01:03;21.83;;;7.82;;
71125;SDS011;58785;55.566;38.058;2023-01-20T05:03:29;24.63;;;7.67;;
71125;SDS011;58785;55.566;38.058;2023-01-20T05:05:54;21.27;;;7.18;;
71125;SDS011;58785;55.566;38.058;2023-01-20T05:08:20;21.73;;;8.00;;
71125;SDS011;58785;55.566;38.058;2023-01-20T05:10:46;29.27;;;8.43;;
71125;SDS011;58785;55.566;38.058;2023-01-20T05:13:11;25.70;;;7.63;;
71125;SDS011;58785;55.566;38.058;2023-01-20T05:15:38;24.20;;;8.48;;
71125;SDS011;58785;55.566;38.058;2023-01-20T05:18:03;22.17;;;8.13;;
71125;SDS011;58785;55.566;38.058;2023-01-20T05:20:29;19.87;;;7.37;;
71125;SDS011;58785;55.566;38.058;2023-01-20T05:22:55;26.13;;;7.67;;
71125;SDS011;58785;55.566;38.058;2023-01-20T05:25:20;25.25;;;7.55;;
71125;SDS011;58785;55.566;38.058;2023-01-20T05:27:46;24.93;;;7.67;;
71125;SDS011;58785;55.566;38.058;2023-01-20T05:30:11;23.43;;;7.93;;
71125;SDS011;58785;55.566;38.058;2023-01-20T05:32:37;19.53;;;6.73;;
71125;SDS011;58785;55.566;38.058;2023-01-20T05:35:03;22.52;;;7.65;;
71125;SDS011;58785;55.566;38.058;2023-01-20T05:37:29;26.08;;;8.00;;
71125;SDS011;58785;55.566;38.058;2023-01-20T05:39:55;27.60;;;7.97;;
71125;SDS011;58785;55.566;38.058;2023-01-20T05:42:21;24.47;;;6.93;;
71125;SDS011;58785;55.566;38.058;2023-01-20T05:44:47;27.85;;;8.73;;
71125;SDS011;58785;55.566;38.058;2023-01-20T05:47:12;25.00;;;8.83;;
71125;SDS011;58785;55.566;38.058;2023-01-20T05:49:38;25.43;;;8.37;;
71125;SDS011;58785;55.566;38.058;2023-01-20T05:52:04;24.85;;;8.50;;
71125;SDS011;58785;55.566;38.058;2023-01-20T05:54:29;27.20;;;8.13;;
71125;SDS011;58785;55.566;38.058;2023-01-20T05:56:55;22.00;;;6.80;;
71125;SDS011;58785;55.566;38.058;2023-01-20T05:59:22;22.60;;;7.80;;
71125;SDS011;58785;55.566;38.058;2023-01-20T06:01:48;25.00;;;8.07;;
71125;SDS011;58785;55.566;38.058;2023-01-20T06:04:13;24.65;;;8.23;;
71125;SDS011;58785;55.566;38.058;2023-01-20T06:06:39;28.87;;;7.63;;
71125;SDS011;58785;55.566;38.058;2023-01-20T06:09:04;21.70;;;7.87;;
71125;SDS011;58785;55.566;38.058;2023-01-20T06:11:31;24.58;;;7.55;;
71125;SDS011;58785;55.566;38.058;2023-01-20T06:13:56;24.63;;;8.10;;
71125;SDS011;58785;55.566;38.058;2023-01-20T06:16:22;22.77;;;7.20;;
71125;SDS011;58785;55.566;38.058;2023-01-20T06:18:48;20.75;;;8.30;;
71125;SDS011;58785;55.566;38.058;2023-01-20T06:21:13;19.40;;;6.93;;
71125;SDS011;58785;55.566;38.058;2023-01-20T06:23:39;23.50;;;7.87;;
71125;SDS011;58785;55.566;38.058;2023-01-20T06:26:12;22.93;;;7.70;;
71125;SDS011;58785;55.566;38.058;2023-01-20T06:28:38;22.60;;;7.55;;
71125;SDS011;58785;55.566;38.058;2023-01-20T06:31:05;19.88;;;7.53;;
71125;SDS011;58785;55.566;38.058;2023-01-20T06:33:33;22.47;;;7.80;;
71125;SDS011;58785;55.566;38.058;2023-01-20T06:35:59;19.60;;;6.90;;
71125;SDS011;58785;55.566;38.058;2023-01-20T06:38:27;24.90;;;8.82;;
71125;SDS011;58785;55.566;38.058;2023-01-20T06:40:55;22.77;;;8.23;;
71125;SDS011;58785;55.566;38.058;2023-01-20T06:43:23;23.60;;;8.05;;
71125;SDS011;58785;55.566;38.058;2023-01-20T06:45:49;24.17;;;8.73;;
71125;SDS011;58785;55.566;38.058;2023-01-20T06:48:14;24.90;;;7.85;;
71125;SDS011;58785;55.566;38.058;2023-01-20T06:50:40;29.00;;;8.13;;
71125;SDS011;58785;55.566;38.058;2023-01-20T06:53:06;20.75;;;6.55;;
71125;SDS011;58785;55.566;38.058;2023-01-20T06:55:35;21.00;;;8.13;;
71125;SDS011;58785;55.566;38.058;2023-01-20T06:58:00;28.90;;;7.65;;
71125;SDS011;58785;55.566;38.058;2023-01-20T07:00:26;23.80;;;8.30;;
71125;SDS011;58785;55.566;38.058;2023-01-20T07:02:51;24.10;;;7.90;;
71125;SDS011;58785;55.566;38.058;2023-01-20T07:05:17;23.48;;;6.75;;
71125;SDS011;58785;55.566;38.058;2023-01-20T07:07:43;19.67;;;7.30;;
71125;SDS011;58785;55.566;38.058;2023-01-20T07:10:10;22.33;;;7.97;;
71125;SDS011;58785;55.566;38.058;2023-01-20T07:12:36;22.77;;;8.45;;
71125;SDS011;58785;55.566;38.058;2023-01-20T07:15:01;25.47;;;7.63;;
71125;SDS011;58785;55.566;38.058;2023-01-20T07:17:28;23.02;;;8.50;;
71125;SDS011;58785;55.566;38.058;2023-01-20T07:19:54;22.80;;;8.13;;
71125;SDS011;58785;55.566;38.058;2023-01-20T07:22:19;21.30;;;7.22;;
71125;SDS011;58785;55.566;38.058;2023-01-20T07:24:45;23.37;;;7.60;;
71125;SDS011;58785;55.566;38.058;2023-01-20T07:27:10;25.27;;;7.90;;
71125;SDS011;58785;55.566;38.058;2023-01-20T07:29:36;28.23;;;9.07;;
71125;SDS011;58785;55.566;38.058;2023-01-20T07:32:02;24.53;;;8.70;;
71125;SDS011;58785;55.566;38.058;2023-01-20T07:34:28;22.27;;;8.18;;
71125;SDS011;58785;55.566;38.058;2023-01-20T07:36:54;20.10;;;7.43;;
71125;SDS011;58785;55.566;38.058;2023-01-20T07:39:20;29.63;;;8.87;;
71125;SDS011;58785;55.566;38.058;2023-01-20T07:41:46;21.35;;;8.27;;
71125;SDS011;58785;55.566;38.058;2023-01-20T07:44:14;24.63;;;8.27;;
71125;SDS011;58785;55.566;38.058;2023-01-20T07:46:40;26.65;;;9.00;;
71125;SDS011;58785;55.566;38.058;2023-01-20T07:49:06;25.80;;;10.07;;
71125;SDS011;58785;55.566;38.058;2023-01-20T07:51:31;26.10;;;9.07;;
71125;SDS011;58785;55.566;38.058;2023-01-20T07:53:57;29.23;;;9.63;;
71125;SDS011;58785;55.566;38.058;2023-01-20T07:56:24;21.02;;;7.60;;
71125;SDS011;58785;55.566;38.058;2023-01-20T07:58:51;24.93;;;8.07;;
71125;SDS011;58785;55.566;38.058;2023-01-20T08:01:26;28.63;;;8.75;;
71125;SDS011;58785;55.566;38.058;2023-01-20T08:03:53;26.77;;;9.52;;
71125;SDS011;58785;55.566;38.058;2023-01-20T08:06:20;25.13;;;8.30;;
71125;SDS011;58785;55.566;38.058;2023-01-20T08:08:47;23.17;;;8.13;;
71125;SDS011;58785;55.566;38.058;2023-01-20T08:11:14;19.93;;;8.37;;
71125;SDS011;58785;55.566;38.058;2023-01-20T08:13:41;22.90;;;8.00;;
71125;SDS011;58785;55.566;38.058;2023-01-20T08:16:07;25.85;;;7.68;;
71125;SDS011;58785;55.566;38.058;2023-01-20T08:18:35;28.23;;;8.40;;
71125;SDS011;58785;55.566;38.058;2023-01-20T08:21:01;24.90;;;8.40;;
71125;SDS011;58785;55.566;38.058;2023-01-20T08:23:31;22.50;;;7.22;;
71125;SDS011;58785;55.566;38.058;2023-01-20T08:25:57;21.75;;;7.55;;
71125;SDS011;58785;55.566;38.058;2023-01-20T08:28:27;23.67;;;8.52;;
71125;SDS011;58785;55.566;38.058;2023-01-20T08:30:54;20.80;;;7.93;;
71125;SDS011;58785;55.566;38.058;2023-01-20T08:33:26;23.40;;;7.53;;
71125;SDS011;58785;55.566;38.058;2023-01-20T08:35:52;21.67;;;7.97;;
71125;SDS011;58785;55.566;38.058;2023-01-20T08:38:19;20.73;;;8.63;;
71125;SDS011;58785;55.566;38.058;2023-01-20T08:40:45;24.52;;;8.55;;
71125;SDS011;58785;55.566;38.058;2023-01-20T08:43:11;22.63;;;7.93;;
71125;SDS011;58785;55.566;38.058;2023-01-20T08:45:40;26.45;;;8.55;;
71125;SDS011;58785;55.566;38.058;2023-01-20T08:48:08;19.80;;;7.40;;
71125;SDS011;58785;55.566;38.058;2023-01-20T08:50:34;24.45;;;7.28;;
71125;SDS011;58785;55.566;38.058;2023-01-20T08:53:00;21.00;;;7.28;;
71125;SDS011;58785;55.566;38.058;2023-01-20T08:55:26;23.93;;;7.80;;
71125;SDS011;58785;55.566;38.058;2023-01-20T08:57:52;23.60;;;7.40;;
71125;SDS011;58785;55.566;38.058;2023-01-20T09:00:17;25.53;;;7.97;;
71125;SDS011;58785;55.566;38.058;2023-01-20T09:02:43;24.10;;;8.88;;
71125;SDS011;58785;55.566;38.058;2023-01-20T09:05:09;20.90;;;7.85;;
71125;SDS011;58785;55.566;38.058;2023-01-20T09:07:35;21.70;;;7.33;;
71125;SDS011;58785;55.566;38.058;2023-01-20T09:10:00;22.88;;;9.50;;
71125;SDS011;58785;55.566;38.058;2023-01-20T09:12:26;22.63;;;7.73;;
71125;SDS011;58785;55.566;38.058;2023-01-20T09:14:51;25.65;;;7.78;;
71125;SDS011;58785;55.566;38.058;2023-01-20T09:17:17;24.47;;;7.57;;
71125;SDS011;58785;55.566;38.058;2023-01-20T09:19:43;27.07;;;7.97;;
71125;SDS011;58785;55.566;38.058;2023-01-20T09:22:08;20.98;;;7.85;;
71125;SDS011;58785;55.566;38.058;2023-01-20T09:24:34;22.53;;;8.17;;
71125;SDS011;58785;55.566;38.058;2023-01-20T09:26:59;22.10;;;7.23;;
71125;SDS011;58785;55.566;38.058;2023-01-20T09:29:25;23.98;;;7.47;;
71125;SDS011;58785;55.566;38.058;2023-01-20T09:31:51;24.90;;;7.57;;
71125;SDS011;58785;55.566;38.058;2023-01-20T09:34:22;19.75;;;7.18;;
71125;SDS011;58785;55.566;38.058;2023-01-20T09:36:53;22.25;;;7.85;;
71125;SDS011;58785;55.566;38.058;2023-01-20T09:39:20;22.45;;;7.25;;
71125;SDS011;58785;55.566;38.058;2023-01-20T09:42:24;22.85;;;8.65;;
71125;SDS011;58785;55.566;38.058;2023-01-20T09:45:31;24.10;;;6.93;;
71125;SDS011;58785;55.566;38.058;2023-01-20T09:50:49;22.80;;;7.20;;
71125;SDS011;58785;55.566;38.058;2023-01-20T09:56:18;22.10;;;7.40;;
71125;SDS011;58785;55.566;38.058;2023-01-20T09:59:04;27.83;;;8.57;;
71125;SDS011;58785;55.566;38.058;2023-01-20T10:04:23;23.13;;;7.35;;
71125;SDS011;58785;55.566;38.058;2023-01-20T10:09:56;17.42;;;6.57;;
71125;SDS011;58785;55.566;38.058;2023-01-20T10:12:32;21.20;;;7.10;;
71125;SDS011;58785;55.566;38.058;2023-01-20T10:17:35;23.48;;;6.78;;
71125;SDS011;58785;55.566;38.058;2023-01-20T10:20:12;19.15;;;7.53;;
71125;SDS011;58785;55.566;38.058;2023-01-20T10:22:47;25.60;;;7.65;;
71125;SDS011;58785;55.566;38.058;2023-01-20T10:25:21;23.73;;;7.90;;
71125;SDS011;58785;55.566;38.058;2023-01-20T10:28:02;22.55;;;7.78;;
71125;SDS011;58785;55.566;38.058;2023-01-20T10:30:34;21.58;;;7.07;;
71125;SDS011;58785;55.566;38.058;2023-01-20T10:33:11;21.70;;;7.18;;
71125;SDS011;58785;55.566;38.058;2023-01-20T10:35:39;24.13;;;7.72;;
71125;SDS011;58785;55.566;38.058;2023-01-20T10:38:14;20.27;;;7.10;;
71125;SDS011;58785;55.566;38.058;2023-01-20T10:43:17;21.45;;;7.00;;
71125;SDS011;58785;55.566;38.058;2023-01-20T10:51:44;18.30;;;7.00;;
71125;SDS011;58785;55.566;38.058;2023-01-20T10:56:59;21.00;;;7.05;;
71125;SDS011;58785;55.566;38.058;2023-01-20T10:59:36;16.75;;;7.13;;
71125;SDS011;58785;55.566;38.058;2023-01-20T11:02:11;24.67;;;7.43;;
71125;SDS011;58785;55.566;38.058;2023-01-20T11:04:40;22.93;;;7.23;;
71125;SDS011;58785;55.566;38.058;2023-01-20T11:07:12;19.88;;;6.88;;
71125;SDS011;58785;55.566;38.058;2023-01-20T11:09:41;17.75;;;6.97;;
71125;SDS011;58785;55.566;38.058;2023-01-20T11:12:15;18.67;;;6.00;;
71125;SDS011;58785;55.566;38.058;2023-01-20T11:14:45;22.00;;;7.45;;
71125;SDS011;58785;55.566;38.058;2023-01-20T11:17:12;17.10;;;6.15;;
71125;SDS011;58785;55.566;38.058;2023-01-20T11:19:51;22.08;;;7.03;;
71125;SDS011;58785;55.566;38.058;2023-01-20T11:22:23;17.10;;;6.13;;
71125;SDS011;58785;55.566;38.058;2023-01-20T11:24:53;20.30;;;7.27;;
71125;SDS011;58785;55.566;38.058;2023-01-20T11:27:21;18.20;;;6.95;;
71125;SDS011;58785;55.566;38.058;2023-01-20T11:29:54;21.33;;;7.20;;
71125;SDS011;58785;55.566;38.058;2023-01-20T11:34:57;17.08;;;5.78;;
71125;SDS011;58785;55.566;38.058;2023-01-20T11:37:25;24.70;;;7.87;;
71125;SDS011;58785;55.566;38.058;2023-01-20T11:39:59;21.95;;;7.20;;
71125;SDS011;58785;55.566;38.058;2023-01-20T11:42:39;18.90;;;6.78;;
71125;SDS011;58785;55.566;38.058;2023-01-20T11:45:29;18.73;;;6.50;;
71125;SDS011;58785;55.566;38.058;2023-01-20T11:50:41;19.17;;;6.00;;
71125;SDS011;58785;55.566;38.058;2023-01-20T11:56:15;22.42;;;6.55;;
71125;SDS011;58785;55.566;38.058;2023-01-20T11:58:48;17.08;;;6.25;;
71125;SDS011;58785;55.566;38.058;2023-01-20T12:09:37;20.65;;;5.38;;
71125;SDS011;58785;55.566;38.058;2023-01-20T12:15:14;19.25;;;6.07;;
71125;SDS011;58785;55.566;38.058;2023-01-20T12:18:15;18.30;;;6.10;;
71125;SDS011;58785;55.566;38.058;2023-01-20T12:20:57;14.25;;;4.00;;
71125;SDS011;58785;55.566;38.058;2023-01-20T12:26:35;17.38;;;5.68;;
71125;SDS011;58785;55.566;38.058;2023-01-20T12:32:00;19.80;;;5.65;;
71125;SDS011;58785;55.566;38.058;2023-01-20T12:34:27;18.52;;;5.88;;
71125;SDS011;58785;55.566;38.058;2023-01-20T13:10:20;17.40;;;5.20;;
71125;SDS011;58785;55.566;38.058;2023-01-20T13:12:59;15.35;;;5.13;;
71125;SDS011;58785;55.566;38.058;2023-01-20T13:15:41;17.40;;;5.97;;
71125;SDS011;58785;55.566;38.058;2023-01-20T13:18:26;17.85;;;5.43;;
71125;SDS011;58785;55.566;38.058;2023-01-20T13:21:00;21.90;;;4.53;;
71125;SDS011;58785;55.566;38.058;2023-01-20T13:23:27;20.58;;;4.88;;
71125;SDS011;58785;55.566;38.058;2023-01-20T13:25:55;16.00;;;4.60;;
71125;SDS011;58785;55.566;38.058;2023-01-20T13:28:23;14.87;;;4.57;;
71125;SDS011;58785;55.566;38.058;2023-01-20T13:30:52;23.00;;;5.45;;
71125;SDS011;58785;55.566;38.058;2023-01-20T13:36:21;16.05;;;5.43;;
71125;SDS011;58785;55.566;38.058;2023-01-20T13:38:49;17.00;;;5.80;;
71125;SDS011;58785;55.566;38.058;2023-01-20T13:41:48;12.50;;;4.67;;
71125;SDS011;58785;55.566;38.058;2023-01-20T13:44:30;14.82;;;4.90;;
71125;SDS011;58785;55.566;38.058;2023-01-20T13:47:01;13.90;;;4.70;;
71125;SDS011;58785;55.566;38.058;2023-01-20T13:49:27;14.85;;;4.43;;
71125;SDS011;58785;55.566;38.058;2023-01-20T13:52:08;12.55;;;4.22;;
71125;SDS011;58785;55.566;38.058;2023-01-20T13:54:36;14.33;;;5.53;;
71125;SDS011;58785;55.566;38.058;2023-01-20T13:59:52;16.95;;;4.82;;
71125;SDS011;58785;55.566;38.058;2023-01-20T14:02:19;16.52;;;5.13;;
71125;SDS011;58785;55.566;38.058;2023-01-20T14:04:46;15.65;;;5.65;;
71125;SDS011;58785;55.566;38.058;2023-01-20T14:07:28;14.77;;;5.00;;
71125;SDS011;58785;55.566;38.058;2023-01-20T14:09:58;14.70;;;5.15;;
71125;SDS011;58785;55.566;38.058;2023-01-20T14:12:25;16.30;;;5.25;;
71125;SDS011;58785;55.566;38.058;2023-01-20T14:14:51;16.80;;;5.50;;
71125;SDS011;58785;55.566;38.058;2023-01-20T14:17:23;12.97;;;4.40;;
71125;SDS011;58785;55.566;38.058;2023-01-20T14:19:52;16.35;;;4.38;;
71125;SDS011;58785;55.566;38.058;2023-01-20T14:24:50;10.88;;;4.43;;
71125;SDS011;58785;55.566;38.058;2023-01-20T14:27:27;11.52;;;4.30;;
71125;SDS011;58785;55.566;38.058;2023-01-20T14:29:56;13.27;;;5.10;;
71125;SDS011;58785;55.566;38.058;2023-01-20T14:32:36;15.95;;;5.07;;
71125;SDS011;58785;55.566;38.058;2023-01-20T14:35:03;14.75;;;4.32;;
71125;SDS011;58785;55.566;38.058;2023-01-20T14:37:38;17.00;;;4.43;;
71125;SDS011;58785;55.566;38.058;2023-01-20T14:40:11;13.83;;;5.20;;
71125;SDS011;58785;55.566;38.058;2023-01-20T14:42:55;14.73;;;4.95;;
71125;SDS011;58785;55.566;38.058;2023-01-20T14:45:23;13.40;;;5.30;;
71125;SDS011;58785;55.566;38.058;2023-01-20T14:47:50;17.85;;;5.97;;
71125;SDS011;58785;55.566;38.058;2023-01-20T14:50:17;17.25;;;4.82;;
71125;SDS011;58785;55.566;38.058;2023-01-20T14:52:43;17.63;;;5.70;;
71125;SDS011;58785;55.566;38.058;2023-01-20T14:58:31;12.98;;;4.78;;
71125;SDS011;58785;55.566;38.058;2023-01-20T15:00:59;14.13;;;4.80;;
71125;SDS011;58785;55.566;38.058;2023-01-20T15:03:27;15.43;;;4.40;;
71125;SDS011;58785;55.566;38.058;2023-01-20T15:05:58;14.03;;;4.47;;
71125;SDS011;58785;55.566;38.058;2023-01-20T15:08:40;16.63;;;5.68;;
71125;SDS011;58785;55.566;38.058;2023-01-20T15:11:10;15.70;;;4.65;;
71125;SDS011;58785;55.566;38.058;2023-01-20T15:21:48;15.23;;;4.45;;
71125;SDS011;58785;55.566;38.058;2023-01-20T15:26:49;12.30;;;4.65;;
71125;SDS011;58785;55.566;38.058;2023-01-20T15:31:52;17.97;;;5.40;;
71125;SDS011;58785;55.566;38.058;2023-01-20T15:34:19;13.75;;;4.18;;
71125;SDS011;58785;55.566;38.058;2023-01-20T15:36:46;14.48;;;4.60;;
71125;SDS011;58785;55.566;38.058;2023-01-20T15:39:17;13.00;;;3.50;;
71125;SDS011;58785;55.566;38.058;2023-01-20T15:41:47;16.80;;;5.40;;
71125;SDS011;58785;55.566;38.058;2023-01-20T15:44:18;17.50;;;5.20;;
71125;SDS011;58785;55.566;38.058;2023-01-20T15:46:43;12.90;;;4.97;;
71125;SDS011;58785;55.566;38.058;2023-01-20T15:49:10;15.98;;;5.32;;
71125;SDS011;58785;55.566;38.058;2023-01-20T15:51:37;11.38;;;4.03;;
71125;SDS011;58785;55.566;38.058;2023-01-20T15:54:03;11.90;;;4.67;;
71125;SDS011;58785;55.566;38.058;2023-01-20T15:56:31;12.02;;;3.78;;
71125;SDS011;58785;55.566;38.058;2023-01-20T15:58:59;13.65;;;4.18;;
71125;SDS011;58785;55.566;38.058;2023-01-20T16:01:25;15.90;;;5.43;;
71125;SDS011;58785;55.566;38.058;2023-01-20T16:03:53;14.77;;;4.60;;
71125;SDS011;58785;55.566;38.058;2023-01-20T16:06:23;16.70;;;5.40;;
71125;SDS011;58785;55.566;38.058;2023-01-20T16:08:53;13.98;;;4.97;;
71125;SDS011;58785;55.566;38.058;2023-01-20T16:11:19;12.98;;;4.38;;
71125;SDS011;58785;55.566;38.058;2023-01-20T16:13:45;15.77;;;5.27;;
71125;SDS011;58785;55.566;38.058;2023-01-20T16:16:14;16.85;;;5.28;;
71125;SDS011;58785;55.566;38.058;2023-01-20T16:18:44;13.25;;;5.05;;
71125;SDS011;58785;55.566;38.058;2023-01-20T16:21:11;15.10;;;4.40;;
71125;SDS011;58785;55.566;38.058;2023-01-20T16:23:39;15.30;;;5.47;;
71125;SDS011;58785;55.566;38.058;2023-01-20T16:28:50;14.68;;;5.03;;
71125;SDS011;58785;55.566;38.058;2023-01-20T16:31:18;20.00;;;5.93;;
71125;SDS011;58785;55.566;38.058;2023-01-20T16:33:44;16.03;;;5.70;;
71125;SDS011;58785;55.566;38.058;2023-01-20T16:36:13;14.48;;;4.82;;
71125;SDS011;58785;55.566;38.058;2023-01-20T16:38:41;14.75;;;5.57;;
71125;SDS011;58785;55.566;38.058;2023-01-20T16:41:14;17.23;;;5.50;;
71125;SDS011;58785;55.566;38.058;2023-01-20T16:43:45;18.17;;;6.25;;
71125;SDS011;58785;55.566;38.058;2023-01-20T16:46:12;18.98;;;6.68;;
71125;SDS011;58785;55.566;38.058;2023-01-20T16:48:39;17.00;;;5.83;;